createdAt,value
2023-02-17T00:07:43.033Z,13.48
2023-02-17T00:17:46.351Z,8.63
2023-02-17T00:27:48.331Z,9.75
2023-02-17T00:37:51.692Z,7.55
2023-02-17T00:47:53.632Z,6.53
2023-02-17T00:57:57.013Z,6.63
2023-02-17T01:07:59.005Z,8.85
2023-02-17T01:18:02.332Z,4.68
2023-02-17T01:28:05.505Z,5.70
2023-02-17T01:38:08.786Z,8.02
2023-02-17T01:48:14.365Z,5.57
2023-02-17T01:58:20.865Z,4.15
2023-02-17T02:08:22.885Z,4.90
2023-02-17T02:18:37.409Z,6.40
2023-02-17T02:28:53.124Z,12.82
2023-02-17T02:39:01.539Z,8.00
2023-02-17T02:49:04.669Z,9.27
2023-02-17T02:59:18.025Z,7.00
2023-02-17T03:09:23.899Z,8.65
2023-02-17T03:19:28.725Z,7.30
2023-02-17T03:29:30.718Z,8.13
2023-02-17T03:39:34.039Z,9.13
2023-02-17T03:49:35.968Z,6.93
2023-02-17T03:59:39.307Z,3.53
2023-02-17T04:09:41.285Z,6.68
2023-02-17T04:19:44.583Z,3.72
2023-02-17T04:29:46.490Z,3.75
2023-02-17T04:39:49.806Z,5.70
2023-02-17T04:49:51.711Z,2.78
2023-02-17T04:59:55.004Z,5.20
2023-02-17T05:09:56.952Z,2.55
2023-02-17T05:20:00.611Z,1.48
2023-02-17T05:30:02.648Z,3.90
2023-02-17T05:40:07.536Z,2.08
2023-02-17T05:50:09.976Z,4.40
2023-02-17T06:00:15.030Z,5.10
2023-02-17T06:10:17.183Z,3.40
2023-02-17T06:20:20.828Z,5.80
2023-02-17T06:30:22.837Z,1.80
2023-02-17T06:40:28.545Z,1.65
2023-02-17T06:50:30.762Z,2.70
2023-02-17T07:00:34.155Z,2.35
2023-02-17T07:10:37.165Z,0.90
2023-02-17T07:20:40.577Z,4.80
2023-02-17T07:30:43.835Z,0.80
2023-02-17T07:40:47.176Z,1.80
2023-02-17T07:50:49.121Z,2.30
2023-02-17T08:00:52.413Z,3.78
2023-02-17T08:10:54.537Z,1.92
2023-02-17T08:20:57.829Z,0.88
2023-02-17T08:30:59.905Z,2.92
2023-02-17T08:41:11.372Z,3.83
2023-02-17T08:51:14.281Z,2.95
2023-02-17T09:01:18.035Z,0.90
2023-02-17T09:11:20.305Z,0.40
2023-02-17T09:21:23.876Z,0.40
2023-02-17T09:31:57.108Z,0.55
2023-02-17T09:42:00.513Z,1.80
2023-02-17T09:52:10.945Z,1.10
2023-02-17T10:02:21.250Z,0.88
2023-02-17T10:12:26.504Z,0.98
2023-02-17T10:22:32.165Z,0.55
2023-02-17T10:32:43.453Z,0.52
2023-02-17T10:42:49.675Z,2.75
2023-02-17T10:52:53.196Z,2.58
2023-02-17T11:02:56.500Z,2.60
2023-02-17T11:12:58.850Z,1.42
2023-02-17T11:23:20.409Z,1.27
2023-02-17T11:33:28.729Z,1.13
2023-02-17T11:43:32.668Z,1.73
2023-02-17T11:53:49.949Z,2.25
2023-02-17T12:04:21.552Z,1.92
2023-02-17T12:14:57.281Z,2.75
2023-02-17T12:25:16.876Z,2.00
2023-02-17T12:35:23.209Z,2.03
2023-02-17T12:45:35.802Z,1.38
2023-02-17T12:55:42.931Z,2.53
2023-02-17T13:05:55.414Z,3.33
2023-02-17T13:16:04.913Z,1.48
2023-02-17T13:26:16.140Z,1.02
2023-02-17T13:36:21.910Z,0.57
2023-02-17T13:46:27.002Z,1.38
2023-02-17T13:56:30.546Z,1.98
2023-02-17T14:06:37.673Z,1.10
2023-02-17T14:16:42.838Z,2.78
2023-02-17T14:26:48.420Z,3.63
2023-02-17T14:36:50.486Z,1.58
2023-02-17T14:46:53.859Z,1.58
2023-02-17T14:57:03.324Z,7.47
2023-02-17T15:07:11.895Z,1.60
2023-02-17T15:17:14.185Z,1.92
2023-02-17T15:27:17.513Z,0.82
2023-02-17T15:37:19.442Z,3.97
2023-02-17T15:47:22.934Z,5.03
2023-02-17T15:57:25.632Z,1.77
2023-02-17T16:07:28.952Z,3.83
2023-02-17T16:17:31.025Z,3.45
2023-02-17T16:27:34.371Z,4.60
2023-02-17T16:37:36.367Z,1.02
2023-02-17T16:47:39.759Z,1.40
2023-02-17T16:57:42.935Z,0.88
2023-02-17T17:07:46.950Z,1.35
2023-02-17T17:17:55.124Z,1.45
2023-02-17T17:27:58.488Z,0.85
2023-02-17T17:38:00.513Z,1.48
2023-02-17T17:48:04.237Z,8.73
2023-02-17T18:31:19.575Z,13.63
2023-02-17T18:52:27.340Z,7.22
2023-02-17T19:02:29.374Z,11.38
2023-02-17T19:12:32.783Z,10.57
2023-02-17T19:22:35.785Z,5.60
2023-02-17T19:32:39.137Z,11.75
2023-02-17T20:05:02.416Z,7.97
2023-02-17T20:15:06.437Z,8.85
2023-02-17T20:25:08.743Z,16.48
2023-02-17T20:35:13.969Z,16.38
2023-02-17T20:45:16.018Z,15.00
2023-02-17T20:55:19.408Z,14.45
2023-02-17T21:05:22.674Z,23.85
2023-02-17T21:15:38.923Z,19.65
2023-02-17T21:26:01.631Z,23.85
2023-02-17T21:36:07.386Z,32.03
2023-02-17T21:46:27.697Z,31.73
2023-02-17T22:07:32.959Z,22.48
2023-02-17T22:27:53.002Z,15.55
2023-02-17T22:37:55.035Z,10.07
2023-02-17T22:47:58.374Z,14.02
2023-02-17T22:58:00.397Z,11.68
2023-02-17T23:08:03.804Z,9.82
2023-02-17T23:18:43.814Z,11.82
2023-02-17T23:28:47.174Z,12.10
2023-02-17T23:38:49.099Z,19.48
2023-02-17T23:48:52.418Z,11.30
2023-02-17T23:58:54.761Z,7.43
